sensor_id;sensor_type;location;lat;lon;timestamp;temperature;humidity
20862;DHT22;10591;52.532;13.348;2023-09-07T00:00:04;18.91;72.18
20862;DHT22;10591;52.532;13.348;2023-09-07T00:02:38;18.88;72.31
20862;DHT22;10591;52.532;13.348;2023-09-07T00:05:11;18.87;72.39
20862;DHT22;10591;52.532;13.348;2023-09-07T00:07:43;18.82;72.22
20862;DHT22;10591;52.532;13.348;2023-09-07T00:10:15;18.83;72.33
20862;DHT22;10591;52.532;13.348;2023-09-07T00:12:47;18.78;72.70
20862;DHT22;10591;52.532;13.348;2023-09-07T00:15:18;18.78;73.11
20862;DHT22;10591;52.532;13.348;2023-09-07T00:17:50;18.74;73.26
20862;DHT22;10591;52.532;13.348;2023-09-07T00:20:21;18.72;73.04
20862;DHT22;10591;52.532;13.348;2023-09-07T00:22:52;18.70;73.33
20862;DHT22;10591;52.532;13.348;2023-09-07T00:25:23;18.69;73.42
20862;DHT22;10591;52.532;13.348;2023-09-07T00:27:54;18.66;73.52
20862;DHT22;10591;52.532;13.348;2023-09-07T00:30:24;18.62;73.65
20862;DHT22;10591;52.532;13.348;2023-09-07T00:32:58;18.58;73.64
20862;DHT22;10591;52.532;13.348;2023-09-07T00:35:29;18.64;73.68
20862;DHT22;10591;52.532;13.348;2023-09-07T00:37:59;18.65;73.62
20862;DHT22;10591;52.532;13.348;2023-09-07T00:40:30;18.61;73.83
20862;DHT22;10591;52.532;13.348;2023-09-07T00:43:01;18.59;73.99
20862;DHT22;10591;52.532;13.348;2023-09-07T00:45:34;18.53;74.14
20862;DHT22;10591;52.532;13.348;2023-09-07T00:48:05;18.50;74.35
20862;DHT22;10591;52.532;13.348;2023-09-07T00:50:36;18.50;74.29
20862;DHT22;10591;52.532;13.348;2023-09-07T00:53:07;18.44;74.42
20862;DHT22;10591;52.532;13.348;2023-09-07T00:55:38;18.42;74.55
20862;DHT22;10591;52.532;13.348;2023-09-07T00:58:09;18.40;74.76
20862;DHT22;10591;52.532;13.348;2023-09-07T01:00:41;18.35;74.96
20862;DHT22;10591;52.532;13.348;2023-09-07T01:03:12;18.30;75.09
20862;DHT22;10591;52.532;13.348;2023-09-07T01:05:52;18.26;75.24
20862;DHT22;10591;52.532;13.348;2023-09-07T01:08:29;18.27;75.16
20862;DHT22;10591;52.532;13.348;2023-09-07T01:11:00;18.29;74.84
20862;DHT22;10591;52.532;13.348;2023-09-07T01:13:32;18.26;75.10
20862;DHT22;10591;52.532;13.348;2023-09-07T01:16:05;18.27;75.16
20862;DHT22;10591;52.532;13.348;2023-09-07T01:18:37;18.21;75.55
20862;DHT22;10591;52.532;13.348;2023-09-07T01:21:09;18.18;75.70
20862;DHT22;10591;52.532;13.348;2023-09-07T01:23:45;18.12;75.95
20862;DHT22;10591;52.532;13.348;2023-09-07T01:26:17;18.14;75.82
20862;DHT22;10591;52.532;13.348;2023-09-07T01:28:48;18.05;76.28
20862;DHT22;10591;52.532;13.348;2023-09-07T01:31:20;18.08;76.13
20862;DHT22;10591;52.532;13.348;2023-09-07T01:33:51;18.04;76.33
20862;DHT22;10591;52.532;13.348;2023-09-07T01:36:23;18.05;76.33
20862;DHT22;10591;52.532;13.348;2023-09-07T01:38:53;18.07;75.81
20862;DHT22;10591;52.532;13.348;2023-09-07T01:41:26;18.05;76.02
20862;DHT22;10591;52.532;13.348;2023-09-07T01:43:58;18.07;76.15
20862;DHT22;10591;52.532;13.348;2023-09-07T01:46:29;18.07;76.10
20862;DHT22;10591;52.532;13.348;2023-09-07T01:49:00;18.08;75.92
20862;DHT22;10591;52.532;13.348;2023-09-07T01:51:31;18.12;76.16
20862;DHT22;10591;52.532;13.348;2023-09-07T01:54:01;18.15;76.04
20862;DHT22;10591;52.532;13.348;2023-09-07T01:56:33;18.16;75.43
20862;DHT22;10591;52.532;13.348;2023-09-07T02:02:42;18.09;75.81
20862;DHT22;10591;52.532;13.348;2023-09-07T02:05:13;18.02;76.33
20862;DHT22;10591;52.532;13.348;2023-09-07T02:07:47;17.94;76.44
20862;DHT22;10591;52.532;13.348;2023-09-07T02:10:19;18.08;75.76
20862;DHT22;10591;52.532;13.348;2023-09-07T02:12:50;18.30;74.31
20862;DHT22;10591;52.532;13.348;2023-09-07T02:15:21;18.34;73.94
20862;DHT22;10591;52.532;13.348;2023-09-07T02:17:53;18.38;73.65
20862;DHT22;10591;52.532;13.348;2023-09-07T02:20:24;18.43;73.45
20862;DHT22;10591;52.532;13.348;2023-09-07T02:22:54;18.36;73.76
20862;DHT22;10591;52.532;13.348;2023-09-07T02:25:26;18.45;73.37
20862;DHT22;10591;52.532;13.348;2023-09-07T02:27:57;18.44;73.39
20862;DHT22;10591;52.532;13.348;2023-09-07T02:30:28;18.50;73.19
20862;DHT22;10591;52.532;13.348;2023-09-07T02:33:00;18.39;73.60
20862;DHT22;10591;52.532;13.348;2023-09-07T02:35:31;18.40;73.39
20862;DHT22;10591;52.532;13.348;2023-09-07T02:38:02;18.36;73.51
20862;DHT22;10591;52.532;13.348;2023-09-07T02:40:42;18.38;73.49
20862;DHT22;10591;52.532;13.348;2023-09-07T02:43:13;18.36;73.30
20862;DHT22;10591;52.532;13.348;2023-09-07T02:45:43;18.32;73.59
20862;DHT22;10591;52.532;13.348;2023-09-07T02:48:14;18.36;73.49
20862;DHT22;10591;52.532;13.348;2023-09-07T02:50:45;18.30;73.61
20862;DHT22;10591;52.532;13.348;2023-09-07T02:53:17;18.45;73.29
20862;DHT22;10591;52.532;13.348;2023-09-07T02:55:48;18.33;73.37
20862;DHT22;10591;52.532;13.348;2023-09-07T02:58:19;18.28;73.52
20862;DHT22;10591;52.532;13.348;2023-09-07T03:00:50;18.18;73.80
20862;DHT22;10591;52.532;13.348;2023-09-07T03:03:21;18.28;73.47
20862;DHT22;10591;52.532;13.348;2023-09-07T03:05:53;18.16;73.72
20862;DHT22;10591;52.532;13.348;2023-09-07T03:08:25;18.26;73.52
20862;DHT22;10591;52.532;13.348;2023-09-07T03:10:55;18.26;73.41
20862;DHT22;10591;52.532;13.348;2023-09-07T03:13:28;18.16;73.64
20862;DHT22;10591;52.532;13.348;2023-09-07T03:16:00;18.10;73.79
20862;DHT22;10591;52.532;13.348;2023-09-07T03:18:31;18.12;73.68
20862;DHT22;10591;52.532;13.348;2023-09-07T03:21:03;18.14;73.79
20862;DHT22;10591;52.532;13.348;2023-09-07T03:23:34;18.04;74.18
20862;DHT22;10591;52.532;13.348;2023-09-07T03:26:12;17.85;75.26
20862;DHT22;10591;52.532;13.348;2023-09-07T03:28:43;17.73;75.48
20862;DHT22;10591;52.532;13.348;2023-09-07T03:31:14;17.71;75.92
20862;DHT22;10591;52.532;13.348;2023-09-07T03:33:45;17.72;75.74
20862;DHT22;10591;52.532;13.348;2023-09-07T03:36:17;17.64;76.12
20862;DHT22;10591;52.532;13.348;2023-09-07T03:38:47;17.60;76.03
20862;DHT22;10591;52.532;13.348;2023-09-07T03:41:19;17.48;76.46
20862;DHT22;10591;52.532;13.348;2023-09-07T03:43:51;17.42;76.78
20862;DHT22;10591;52.532;13.348;2023-09-07T03:46:21;17.33;77.13
20862;DHT22;10591;52.532;13.348;2023-09-07T03:48:53;17.30;77.02
20862;DHT22;10591;52.532;13.348;2023-09-07T03:51:24;17.34;77.16
20862;DHT22;10591;52.532;13.348;2023-09-07T03:53:57;17.25;77.27
20862;DHT22;10591;52.532;13.348;2023-09-07T03:56:28;17.31;76.50
20862;DHT22;10591;52.532;13.348;2023-09-07T03:58:59;17.32;76.74
20862;DHT22;10591;52.532;13.348;2023-09-07T04:01:30;17.31;76.78
20862;DHT22;10591;52.532;13.348;2023-09-07T04:04:01;17.60;75.53
20862;DHT22;10591;52.532;13.348;2023-09-07T04:06:32;17.62;74.42
20862;DHT22;10591;52.532;13.348;2023-09-07T04:09:03;17.75;74.01
20862;DHT22;10591;52.532;13.348;2023-09-07T04:11:34;17.90;73.53
20862;DHT22;10591;52.532;13.348;2023-09-07T04:14:07;17.90;73.43
20862;DHT22;10591;52.532;13.348;2023-09-07T04:16:37;17.98;73.06
20862;DHT22;10591;52.532;13.348;2023-09-07T04:19:09;17.98;73.03
20862;DHT22;10591;52.532;13.348;2023-09-07T04:21:41;17.93;73.48
20862;DHT22;10591;52.532;13.348;2023-09-07T04:24:12;17.89;73.59
20862;DHT22;10591;52.532;13.348;2023-09-07T04:26:43;17.96;73.09
20862;DHT22;10591;52.532;13.348;2023-09-07T04:29:14;17.81;73.46
20862;DHT22;10591;52.532;13.348;2023-09-07T04:31:45;17.86;73.39
20862;DHT22;10591;52.532;13.348;2023-09-07T04:34:16;17.95;73.16
20862;DHT22;10591;52.532;13.348;2023-09-07T04:36:52;17.80;73.43
20862;DHT22;10591;52.532;13.348;2023-09-07T04:39:25;17.76;73.53
20862;DHT22;10591;52.532;13.348;2023-09-07T04:41:55;17.80;73.51
20862;DHT22;10591;52.532;13.348;2023-09-07T04:44:26;17.82;73.38
20862;DHT22;10591;52.532;13.348;2023-09-07T04:46:58;17.77;73.48
20862;DHT22;10591;52.532;13.348;2023-09-07T04:49:28;17.80;73.35
20862;DHT22;10591;52.532;13.348;2023-09-07T04:51:59;17.74;73.53
20862;DHT22;10591;52.532;13.348;2023-09-07T04:54:30;17.84;73.44
20862;DHT22;10591;52.532;13.348;2023-09-07T04:57:02;17.78;73.40
20862;DHT22;10591;52.532;13.348;2023-09-07T04:59:33;17.80;73.49
20862;DHT22;10591;52.532;13.348;2023-09-07T05:02:06;17.76;73.45
20862;DHT22;10591;52.532;13.348;2023-09-07T05:04:38;17.87;73.10
20862;DHT22;10591;52.532;13.348;2023-09-07T05:07:14;17.86;73.12
20862;DHT22;10591;52.532;13.348;2023-09-07T05:09:45;17.96;72.84
20862;DHT22;10591;52.532;13.348;2023-09-07T05:12:16;18.04;72.70
20862;DHT22;10591;52.532;13.348;2023-09-07T05:14:50;18.47;71.58
20862;DHT22;10591;52.532;13.348;2023-09-07T05:17:21;19.82;67.70
20862;DHT22;10591;52.532;13.348;2023-09-07T05:19:52;20.78;64.01
20862;DHT22;10591;52.532;13.348;2023-09-07T05:22:23;22.00;60.45
20862;DHT22;10591;52.532;13.348;2023-09-07T05:24:55;21.94;60.71
20862;DHT22;10591;52.532;13.348;2023-09-07T05:27:28;22.84;57.70
20862;DHT22;10591;52.532;13.348;2023-09-07T05:29:58;22.62;57.83
20862;DHT22;10591;52.532;13.348;2023-09-07T05:32:32;23.03;56.62
20862;DHT22;10591;52.532;13.348;2023-09-07T05:35:05;22.23;59.11
20862;DHT22;10591;52.532;13.348;2023-09-07T05:37:39;23.36;56.24
20862;DHT22;10591;52.532;13.348;2023-09-07T05:40:12;24.15;54.81
20862;DHT22;10591;52.532;13.348;2023-09-07T05:42:45;24.31;53.54
20862;DHT22;10591;52.532;13.348;2023-09-07T05:45:17;25.81;50.94
20862;DHT22;10591;52.532;13.348;2023-09-07T05:47:49;24.42;52.77
20862;DHT22;10591;52.532;13.348;2023-09-07T05:50:19;25.25;51.03
20862;DHT22;10591;52.532;13.348;2023-09-07T05:52:51;24.40;53.18
20862;DHT22;10591;52.532;13.348;2023-09-07T05:55:22;25.88;50.41
20862;DHT22;10591;52.532;13.348;2023-09-07T05:57:56;24.87;52.13
20862;DHT22;10591;52.532;13.348;2023-09-07T06:00:27;24.33;53.29
20862;DHT22;10591;52.532;13.348;2023-09-07T06:02:58;24.88;51.91
20862;DHT22;10591;52.532;13.348;2023-09-07T06:05:30;24.98;51.50
20862;DHT22;10591;52.532;13.348;2023-09-07T06:08:02;25.73;49.87
20862;DHT22;10591;52.532;13.348;2023-09-07T06:10:33;23.73;54.81
20862;DHT22;10591;52.532;13.348;2023-09-07T06:13:04;22.98;56.22
20862;DHT22;10591;52.532;13.348;2023-09-07T06:15:34;21.70;60.47
20862;DHT22;10591;52.532;13.348;2023-09-07T06:18:06;21.24;61.56
20862;DHT22;10591;52.532;13.348;2023-09-07T06:20:39;21.24;61.53
20862;DHT22;10591;52.532;13.348;2023-09-07T06:23:15;20.63;62.93
20862;DHT22;10591;52.532;13.348;2023-09-07T06:25:49;20.35;64.03
20862;DHT22;10591;52.532;13.348;2023-09-07T06:28:20;20.21;64.24
20862;DHT22;10591;52.532;13.348;2023-09-07T06:30:51;20.19;64.15
20862;DHT22;10591;52.532;13.348;2023-09-07T06:33:22;20.29;64.17
20862;DHT22;10591;52.532;13.348;2023-09-07T06:35:55;20.41;63.57
20862;DHT22;10591;52.532;13.348;2023-09-07T06:38:31;20.36;63.59
20862;DHT22;10591;52.532;13.348;2023-09-07T06:41:04;20.41;63.69
20862;DHT22;10591;52.532;13.348;2023-09-07T06:43:37;20.56;63.57
20862;DHT22;10591;52.532;13.348;2023-09-07T06:46:09;20.60;62.75
20862;DHT22;10591;52.532;13.348;2023-09-07T06:48:42;20.68;62.30
20862;DHT22;10591;52.532;13.348;2023-09-07T06:51:16;20.90;61.41
20862;DHT22;10591;52.532;13.348;2023-09-07T06:53:47;20.90;61.24
20862;DHT22;10591;52.532;13.348;2023-09-07T06:56:21;20.99;61.46
20862;DHT22;10591;52.532;13.348;2023-09-07T06:58:53;21.12;61.21
20862;DHT22;10591;52.532;13.348;2023-09-07T07:01:26;21.16;61.48
20862;DHT22;10591;52.532;13.348;2023-09-07T07:03:58;21.20;60.87
20862;DHT22;10591;52.532;13.348;2023-09-07T07:06:30;21.36;59.66
20862;DHT22;10591;52.532;13.348;2023-09-07T07:09:03;21.26;58.83
20862;DHT22;10591;52.532;13.348;2023-09-07T07:11:35;21.41;58.73
20862;DHT22;10591;52.532;13.348;2023-09-07T07:14:05;21.40;58.67
20862;DHT22;10591;52.532;13.348;2023-09-07T07:16:38;21.40;58.46
20862;DHT22;10591;52.532;13.348;2023-09-07T07:19:10;21.58;60.27
20862;DHT22;10591;52.532;13.348;2023-09-07T07:21:44;21.64;58.17
20862;DHT22;10591;52.532;13.348;2023-09-07T07:24:15;21.76;58.12
20862;DHT22;10591;52.532;13.348;2023-09-07T07:26:47;21.90;58.08
20862;DHT22;10591;52.532;13.348;2023-09-07T07:29:19;21.90;58.05
20862;DHT22;10591;52.532;13.348;2023-09-07T07:31:50;21.90;56.89
20862;DHT22;10591;52.532;13.348;2023-09-07T07:34:21;22.01;57.06
20862;DHT22;10591;52.532;13.348;2023-09-07T07:36:51;22.20;56.56
20862;DHT22;10591;52.532;13.348;2023-09-07T07:39:22;22.04;56.94
20862;DHT22;10591;52.532;13.348;2023-09-07T07:41:53;22.01;56.02
20862;DHT22;10591;52.532;13.348;2023-09-07T07:44:32;22.08;56.18
20862;DHT22;10591;52.532;13.348;2023-09-07T07:47:06;22.17;56.16
20862;DHT22;10591;52.532;13.348;2023-09-07T07:49:37;22.28;56.21
20862;DHT22;10591;52.532;13.348;2023-09-07T07:52:08;22.39;56.32
20862;DHT22;10591;52.532;13.348;2023-09-07T07:54:38;22.36;55.67
20862;DHT22;10591;52.532;13.348;2023-09-07T07:57:12;22.49;55.71
20862;DHT22;10591;52.532;13.348;2023-09-07T07:59:45;22.56;55.67
20862;DHT22;10591;52.532;13.348;2023-09-07T08:02:16;22.66;55.65
20862;DHT22;10591;52.532;13.348;2023-09-07T08:04:47;22.64;55.43
20862;DHT22;10591;52.532;13.348;2023-09-07T08:07:20;22.72;55.90
20862;DHT22;10591;52.532;13.348;2023-09-07T08:09:51;22.86;55.30
20862;DHT22;10591;52.532;13.348;2023-09-07T08:12:22;23.04;54.90
20862;DHT22;10591;52.532;13.348;2023-09-07T08:14:54;23.08;55.06
20862;DHT22;10591;52.532;13.348;2023-09-07T08:17:26;23.20;54.58
20862;DHT22;10591;52.532;13.348;2023-09-07T08:20:18;23.33;53.85
20862;DHT22;10591;52.532;13.348;2023-09-07T08:22:50;23.42;54.17
20862;DHT22;10591;52.532;13.348;2023-09-07T08:25:22;23.47;53.55
20862;DHT22;10591;52.532;13.348;2023-09-07T08:27:55;23.43;52.03
20862;DHT22;10591;52.532;13.348;2023-09-07T08:30:28;23.51;52.52
20862;DHT22;10591;52.532;13.348;2023-09-07T08:32:59;23.57;52.15
20862;DHT22;10591;52.532;13.348;2023-09-07T08:35:34;23.70;52.26
20862;DHT22;10591;52.532;13.348;2023-09-07T08:38:07;23.74;52.20
20862;DHT22;10591;52.532;13.348;2023-09-07T08:40:39;23.82;51.90
20862;DHT22;10591;52.532;13.348;2023-09-07T08:43:12;23.86;51.45
20862;DHT22;10591;52.532;13.348;2023-09-07T08:45:59;23.83;51.32
20862;DHT22;10591;52.532;13.348;2023-09-07T08:48:27;23.86;51.07
20862;DHT22;10591;52.532;13.348;2023-09-07T08:51:00;23.89;51.39
20862;DHT22;10591;52.532;13.348;2023-09-07T08:53:36;24.02;50.96
20862;DHT22;10591;52.532;13.348;2023-09-07T08:56:07;24.08;50.59
20862;DHT22;10591;52.532;13.348;2023-09-07T08:58:40;24.13;50.44
20862;DHT22;10591;52.532;13.348;2023-09-07T09:01:11;24.18;50.57
20862;DHT22;10591;52.532;13.348;2023-09-07T09:03:45;24.28;50.07
20862;DHT22;10591;52.532;13.348;2023-09-07T09:06:20;24.30;50.36
20862;DHT22;10591;52.532;13.348;2023-09-07T09:08:56;24.30;49.49
20862;DHT22;10591;52.532;13.348;2023-09-07T09:11:27;24.50;49.10
20862;DHT22;10591;52.532;13.348;2023-09-07T09:13:59;24.62;49.60
20862;DHT22;10591;52.532;13.348;2023-09-07T09:16:31;24.80;49.49
20862;DHT22;10591;52.532;13.348;2023-09-07T09:19:03;24.95;48.83
20862;DHT22;10591;52.532;13.348;2023-09-07T09:21:33;24.94;48.90
20862;DHT22;10591;52.532;13.348;2023-09-07T09:24:09;25.12;48.47
20862;DHT22;10591;52.532;13.348;2023-09-07T09:26:41;25.12;48.60
20862;DHT22;10591;52.532;13.348;2023-09-07T09:29:13;25.14;48.92
20862;DHT22;10591;52.532;13.348;2023-09-07T09:31:45;25.06;48.43
20862;DHT22;10591;52.532;13.348;2023-09-07T09:34:16;25.34;47.58
20862;DHT22;10591;52.532;13.348;2023-09-07T09:36:46;25.30;47.42
20862;DHT22;10591;52.532;13.348;2023-09-07T09:39:27;25.37;47.06
20862;DHT22;10591;52.532;13.348;2023-09-07T09:41:56;25.53;46.63
20862;DHT22;10591;52.532;13.348;2023-09-07T09:44:29;25.38;45.95
20862;DHT22;10591;52.532;13.348;2023-09-07T09:47:02;25.49;46.23
20862;DHT22;10591;52.532;13.348;2023-09-07T09:49:35;25.49;45.96
20862;DHT22;10591;52.532;13.348;2023-09-07T09:52:08;25.54;45.21
20862;DHT22;10591;52.532;13.348;2023-09-07T09:54:39;25.35;45.45
20862;DHT22;10591;52.532;13.348;2023-09-07T09:57:13;25.35;45.68
20862;DHT22;10591;52.532;13.348;2023-09-07T09:59:44;25.45;46.03
20862;DHT22;10591;52.532;13.348;2023-09-07T10:02:18;25.64;45.62
20862;DHT22;10591;52.532;13.348;2023-09-07T10:04:51;25.63;45.52
20862;DHT22;10591;52.532;13.348;2023-09-07T10:07:28;25.66;45.59
20862;DHT22;10591;52.532;13.348;2023-09-07T10:09:58;25.71;44.80
20862;DHT22;10591;52.532;13.348;2023-09-07T10:12:29;25.88;44.69
20862;DHT22;10591;52.532;13.348;2023-09-07T10:15:00;25.87;45.15
20862;DHT22;10591;52.532;13.348;2023-09-07T10:17:30;25.97;44.43
20862;DHT22;10591;52.532;13.348;2023-09-07T10:20:05;25.86;44.78
20862;DHT22;10591;52.532;13.348;2023-09-07T10:22:37;25.70;45.00
20862;DHT22;10591;52.532;13.348;2023-09-07T10:25:19;25.82;45.41
20862;DHT22;10591;52.532;13.348;2023-09-07T10:27:50;26.04;44.11
20862;DHT22;10591;52.532;13.348;2023-09-07T10:30:21;26.14;44.19
20862;DHT22;10591;52.532;13.348;2023-09-07T10:32:57;26.12;43.45
20862;DHT22;10591;52.532;13.348;2023-09-07T10:35:28;26.21;43.96
20862;DHT22;10591;52.532;13.348;2023-09-07T10:38:01;26.46;43.22
20862;DHT22;10591;52.532;13.348;2023-09-07T10:40:32;26.46;42.88
20862;DHT22;10591;52.532;13.348;2023-09-07T10:43:04;26.42;42.41
20862;DHT22;10591;52.532;13.348;2023-09-07T10:45:38;26.38;42.88
20862;DHT22;10591;52.532;13.348;2023-09-07T10:48:12;26.32;42.93
20862;DHT22;10591;52.532;13.348;2023-09-07T10:50:44;26.34;43.27
20862;DHT22;10591;52.532;13.348;2023-09-07T10:53:26;26.47;43.15
20862;DHT22;10591;52.532;13.348;2023-09-07T10:56:02;26.49;43.09
20862;DHT22;10591;52.532;13.348;2023-09-07T10:58:35;26.65;42.47
20862;DHT22;10591;52.532;13.348;2023-09-07T11:01:05;26.52;41.14
20862;DHT22;10591;52.532;13.348;2023-09-07T11:03:37;26.68;40.61
20862;DHT22;10591;52.532;13.348;2023-09-07T11:06:17;26.52;40.80
20862;DHT22;10591;52.532;13.348;2023-09-07T11:08:54;26.44;40.72
20862;DHT22;10591;52.532;13.348;2023-09-07T11:11:27;26.33;41.49
20862;DHT22;10591;52.532;13.348;2023-09-07T11:13:59;26.33;41.36
20862;DHT22;10591;52.532;13.348;2023-09-07T11:16:33;26.44;41.30
20862;DHT22;10591;52.532;13.348;2023-09-07T11:19:06;26.64;40.95
20862;DHT22;10591;52.532;13.348;2023-09-07T11:21:40;26.69;40.99
20862;DHT22;10591;52.532;13.348;2023-09-07T11:24:11;26.72;40.89
20862;DHT22;10591;52.532;13.348;2023-09-07T11:26:46;26.62;40.68
20862;DHT22;10591;52.532;13.348;2023-09-07T11:29:19;26.84;40.70
20862;DHT22;10591;52.532;13.348;2023-09-07T11:31:49;26.76;41.23
20862;DHT22;10591;52.532;13.348;2023-09-07T11:34:22;26.80;41.14
20862;DHT22;10591;52.532;13.348;2023-09-07T11:36:52;26.98;41.12
20862;DHT22;10591;52.532;13.348;2023-09-07T11:39:23;27.03;41.46
20862;DHT22;10591;52.532;13.348;2023-09-07T11:41:55;27.08;41.16
20862;DHT22;10591;52.532;13.348;2023-09-07T11:44:26;27.09;40.99
20862;DHT22;10591;52.532;13.348;2023-09-07T11:46:58;27.28;40.95
20862;DHT22;10591;52.532;13.348;2023-09-07T11:49:30;27.25;39.89
20862;DHT22;10591;52.532;13.348;2023-09-07T11:52:02;26.97;39.89
20862;DHT22;10591;52.532;13.348;2023-09-07T11:54:34;26.77;40.29
20862;DHT22;10591;52.532;13.348;2023-09-07T11:57:04;27.04;40.58
20862;DHT22;10591;52.532;13.348;2023-09-07T11:59:35;27.20;40.33
20862;DHT22;10591;52.532;13.348;2023-09-07T12:02:08;27.18;39.99
20862;DHT22;10591;52.532;13.348;2023-09-07T12:04:41;27.17;40.26
20862;DHT22;10591;52.532;13.348;2023-09-07T12:07:15;27.31;40.24
20862;DHT22;10591;52.532;13.348;2023-09-07T12:09:46;27.19;40.26
20862;DHT22;10591;52.532;13.348;2023-09-07T12:12:18;27.34;40.17
20862;DHT22;10591;52.532;13.348;2023-09-07T12:14:49;27.25;39.93
20862;DHT22;10591;52.532;13.348;2023-09-07T12:17:19;27.18;39.68
20862;DHT22;10591;52.532;13.348;2023-09-07T12:19:51;27.32;39.73
20862;DHT22;10591;52.532;13.348;2023-09-07T12:22:23;27.18;39.78
20862;DHT22;10591;52.532;13.348;2023-09-07T12:24:55;27.20;40.12
20862;DHT22;10591;52.532;13.348;2023-09-07T12:27:28;27.34;40.55
20862;DHT22;10591;52.532;13.348;2023-09-07T12:30:02;27.46;40.36
20862;DHT22;10591;52.532;13.348;2023-09-07T12:32:41;27.39;40.11
20862;DHT22;10591;52.532;13.348;2023-09-07T12:35:11;27.40;39.60
20862;DHT22;10591;52.532;13.348;2023-09-07T12:37:42;27.38;39.73
20862;DHT22;10591;52.532;13.348;2023-09-07T12:40:14;27.36;39.90
20862;DHT22;10591;52.532;13.348;2023-09-07T12:42:46;27.41;38.50
20862;DHT22;10591;52.532;13.348;2023-09-07T12:45:17;27.54;38.17
20862;DHT22;10591;52.532;13.348;2023-09-07T12:47:50;27.51;38.31
20862;DHT22;10591;52.532;13.348;2023-09-07T12:50:24;27.47;38.71
20862;DHT22;10591;52.532;13.348;2023-09-07T12:52:56;27.63;38.90
20862;DHT22;10591;52.532;13.348;2023-09-07T12:55:29;27.54;37.69
20862;DHT22;10591;52.532;13.348;2023-09-07T12:58:01;27.54;38.21
20862;DHT22;10591;52.532;13.348;2023-09-07T13:00:32;27.66;38.77
20862;DHT22;10591;52.532;13.348;2023-09-07T13:03:06;27.75;38.02
20862;DHT22;10591;52.532;13.348;2023-09-07T13:05:38;27.78;38.47
20862;DHT22;10591;52.532;13.348;2023-09-07T13:08:09;27.48;39.40
20862;DHT22;10591;52.532;13.348;2023-09-07T13:10:42;27.49;39.54
20862;DHT22;10591;52.532;13.348;2023-09-07T13:13:13;27.71;39.91
20862;DHT22;10591;52.532;13.348;2023-09-07T13:15:47;27.67;39.70
20862;DHT22;10591;52.532;13.348;2023-09-07T13:18:21;27.66;38.67
20862;DHT22;10591;52.532;13.348;2023-09-07T13:20:53;27.76;39.22
20862;DHT22;10591;52.532;13.348;2023-09-07T13:23:26;27.90;39.52
20862;DHT22;10591;52.532;13.348;2023-09-07T13:25:57;27.76;39.81
20862;DHT22;10591;52.532;13.348;2023-09-07T13:28:31;27.72;39.97
20862;DHT22;10591;52.532;13.348;2023-09-07T13:31:02;27.64;40.03
20862;DHT22;10591;52.532;13.348;2023-09-07T13:33:35;27.52;40.19
20862;DHT22;10591;52.532;13.348;2023-09-07T13:36:06;27.59;40.23
20862;DHT22;10591;52.532;13.348;2023-09-07T13:38:40;27.59;39.96
20862;DHT22;10591;52.532;13.348;2023-09-07T13:41:13;27.76;40.18
20862;DHT22;10591;52.532;13.348;2023-09-07T13:43:47;27.68;40.31
20862;DHT22;10591;52.532;13.348;2023-09-07T13:46:25;27.66;40.07
20862;DHT22;10591;52.532;13.348;2023-09-07T13:48:57;27.63;39.96
20862;DHT22;10591;52.532;13.348;2023-09-07T13:51:28;27.42;40.08
20862;DHT22;10591;52.532;13.348;2023-09-07T13:54:02;27.49;40.02
20862;DHT22;10591;52.532;13.348;2023-09-07T13:56:35;27.47;39.54
20862;DHT22;10591;52.532;13.348;2023-09-07T13:59:09;27.63;39.56
20862;DHT22;10591;52.532;13.348;2023-09-07T14:01:40;27.70;39.60
20862;DHT22;10591;52.532;13.348;2023-09-07T14:04:11;27.55;39.65
20862;DHT22;10591;52.532;13.348;2023-09-07T14:06:43;27.56;40.20
20862;DHT22;10591;52.532;13.348;2023-09-07T14:09:14;27.56;39.82
20862;DHT22;10591;52.532;13.348;2023-09-07T14:11:44;27.53;39.48
20862;DHT22;10591;52.532;13.348;2023-09-07T14:14:16;27.64;39.56
20862;DHT22;10591;52.532;13.348;2023-09-07T14:16:48;27.65;39.49
20862;DHT22;10591;52.532;13.348;2023-09-07T14:19:20;27.75;39.40
20862;DHT22;10591;52.532;13.348;2023-09-07T14:21:52;27.79;39.37
20862;DHT22;10591;52.532;13.348;2023-09-07T14:24:24;27.57;39.48
20862;DHT22;10591;52.532;13.348;2023-09-07T14:26:54;27.54;39.75
20862;DHT22;10591;52.532;13.348;2023-09-07T14:29:25;27.61;39.48
20862;DHT22;10591;52.532;13.348;2023-09-07T14:31:58;27.53;39.48
20862;DHT22;10591;52.532;13.348;2023-09-07T14:34:30;27.60;39.82
20862;DHT22;10591;52.532;13.348;2023-09-07T14:37:05;27.68;39.46
20862;DHT22;10591;52.532;13.348;2023-09-07T14:39:40;27.70;39.63
20862;DHT22;10591;52.532;13.348;2023-09-07T14:42:12;27.74;39.22
20862;DHT22;10591;52.532;13.348;2023-09-07T14:44:44;27.62;39.18
20862;DHT22;10591;52.532;13.348;2023-09-07T14:47:18;27.64;38.73
20862;DHT22;10591;52.532;13.348;2023-09-07T14:49:52;27.62;39.01
20862;DHT22;10591;52.532;13.348;2023-09-07T14:52:32;27.66;39.28
20862;DHT22;10591;52.532;13.348;2023-09-07T14:55:05;27.60;39.48
20862;DHT22;10591;52.532;13.348;2023-09-07T14:57:37;27.69;39.49
20862;DHT22;10591;52.532;13.348;2023-09-07T15:00:09;27.68;39.73
20862;DHT22;10591;52.532;13.348;2023-09-07T15:02:42;27.84;39.75
20862;DHT22;10591;52.532;13.348;2023-09-07T15:05:13;27.78;39.64
20862;DHT22;10591;52.532;13.348;2023-09-07T15:07:45;27.78;39.50
20862;DHT22;10591;52.532;13.348;2023-09-07T15:10:18;27.70;39.80
20862;DHT22;10591;52.532;13.348;2023-09-07T15:12:54;27.73;39.70
20862;DHT22;10591;52.532;13.348;2023-09-07T15:15:27;27.63;39.83
20862;DHT22;10591;52.532;13.348;2023-09-07T15:17:58;27.55;39.72
20862;DHT22;10591;52.532;13.348;2023-09-07T15:20:31;27.51;39.61
20862;DHT22;10591;52.532;13.348;2023-09-07T15:23:05;27.45;39.26
20862;DHT22;10591;52.532;13.348;2023-09-07T15:25:37;27.45;39.44
20862;DHT22;10591;52.532;13.348;2023-09-07T15:28:08;27.51;39.37
20862;DHT22;10591;52.532;13.348;2023-09-07T15:30:41;27.46;39.88
20862;DHT22;10591;52.532;13.348;2023-09-07T15:33:12;27.44;39.94
20862;DHT22;10591;52.532;13.348;2023-09-07T15:35:43;27.37;39.70
20862;DHT22;10591;52.532;13.348;2023-09-07T15:38:14;27.41;39.67
20862;DHT22;10591;52.532;13.348;2023-09-07T15:40:44;27.35;39.97
20862;DHT22;10591;52.532;13.348;2023-09-07T15:43:17;27.30;39.56
20862;DHT22;10591;52.532;13.348;2023-09-07T15:45:50;27.22;39.72
20862;DHT22;10591;52.532;13.348;2023-09-07T15:48:25;27.27;40.06